sensor_id;sensor_type;location;lat;lon;timestamp;pressure;altitude;pressure_sealevel;temperature;humidity
60874;BME280;46715;40.642;-7.920;2023-03-21T00:00:04;96620.63;;;9.99;92.08
60874;BME280;46715;40.642;-7.920;2023-03-21T00:02:06;96619.06;;;10.03;91.91
60874;BME280;46715;40.642;-7.920;2023-03-21T00:04:07;96611.22;;;9.93;91.80
60874;BME280;46715;40.642;-7.920;2023-03-21T00:06:11;96616.41;;;9.87;92.07
60874;BME280;46715;40.642;-7.920;2023-03-21T00:08:12;96608.63;;;9.93;92.67
60874;BME280;46715;40.642;-7.920;2023-03-21T00:10:13;96606.81;;;9.98;93.11
60874;BME280;46715;40.642;-7.920;2023-03-21T00:12:14;96605.50;;;9.96;92.82
60874;BME280;46715;40.642;-7.920;2023-03-21T00:14:16;96608.34;;;9.94;92.39
60874;BME280;46715;40.642;-7.920;2023-03-21T00:16:19;96604.41;;;9.86;91.84
60874;BME280;46715;40.642;-7.920;2023-03-21T00:18:21;96599.63;;;9.73;91.81
60874;BME280;46715;40.642;-7.920;2023-03-21T00:20:22;96600.22;;;9.85;92.00
60874;BME280;46715;40.642;-7.920;2023-03-21T00:22:24;96601.31;;;9.95;92.28
60874;BME280;46715;40.642;-7.920;2023-03-21T00:24:25;96613.03;;;9.87;92.24
60874;BME280;46715;40.642;-7.920;2023-03-21T00:26:25;96607.22;;;9.75;92.56
60874;BME280;46715;40.642;-7.920;2023-03-21T00:28:27;96610.56;;;9.65;92.59
60874;BME280;46715;40.642;-7.920;2023-03-21T00:30:28;96613.91;;;9.60;92.80
60874;BME280;46715;40.642;-7.920;2023-03-21T00:32:29;96617.31;;;9.61;92.75
60874;BME280;46715;40.642;-7.920;2023-03-21T00:34:29;96609.44;;;9.55;93.02
60874;BME280;46715;40.642;-7.920;2023-03-21T00:36:33;96613.09;;;9.54;93.21
60874;BME280;46715;40.642;-7.920;2023-03-21T00:38:35;96607.84;;;9.49;93.65
60874;BME280;46715;40.642;-7.920;2023-03-21T00:40:36;96612.00;;;9.50;93.90
60874;BME280;46715;40.642;-7.920;2023-03-21T00:42:37;96612.78;;;9.46;94.29
60874;BME280;46715;40.642;-7.920;2023-03-21T00:44:38;96603.94;;;9.47;94.57
60874;BME280;46715;40.642;-7.920;2023-03-21T00:46:40;96605.00;;;9.51;94.45
60874;BME280;46715;40.642;-7.920;2023-03-21T00:48:41;96604.72;;;9.47;94.22
60874;BME280;46715;40.642;-7.920;2023-03-21T00:50:43;96606.75;;;9.40;95.07
60874;BME280;46715;40.642;-7.920;2023-03-21T00:52:44;96608.06;;;9.43;95.45
60874;BME280;46715;40.642;-7.920;2023-03-21T00:54:45;96607.56;;;9.46;96.17
60874;BME280;46715;40.642;-7.920;2023-03-21T00:56:46;96597.41;;;9.49;96.84
60874;BME280;46715;40.642;-7.920;2023-03-21T00:58:47;96601.38;;;9.57;97.43
60874;BME280;46715;40.642;-7.920;2023-03-21T01:00:50;96604.81;;;9.63;97.47
60874;BME280;46715;40.642;-7.920;2023-03-21T01:02:50;96601.94;;;9.64;97.71
60874;BME280;46715;40.642;-7.920;2023-03-21T01:04:58;96599.06;;;9.61;97.50
60874;BME280;46715;40.642;-7.920;2023-03-21T01:06:59;96592.00;;;9.56;97.00
60874;BME280;46715;40.642;-7.920;2023-03-21T01:09:00;96591.16;;;9.45;96.87
60874;BME280;46715;40.642;-7.920;2023-03-21T01:11:05;96587.72;;;9.39;96.96
60874;BME280;46715;40.642;-7.920;2023-03-21T01:13:07;96589.03;;;9.37;97.74
60874;BME280;46715;40.642;-7.920;2023-03-21T01:15:07;96587.47;;;9.36;97.98
60874;BME280;46715;40.642;-7.920;2023-03-21T01:17:09;96590.59;;;9.38;98.23
60874;BME280;46715;40.642;-7.920;2023-03-21T01:19:15;96596.34;;;9.40;98.85
60874;BME280;46715;40.642;-7.920;2023-03-21T01:21:17;96591.38;;;9.38;98.96
60874;BME280;46715;40.642;-7.920;2023-03-21T01:23:17;96597.66;;;9.43;98.90
60874;BME280;46715;40.642;-7.920;2023-03-21T01:25:19;96590.03;;;9.31;99.04
60874;BME280;46715;40.642;-7.920;2023-03-21T01:27:19;96585.13;;;9.34;99.99
60874;BME280;46715;40.642;-7.920;2023-03-21T01:29:24;96582.81;;;9.43;100.00
60874;BME280;46715;40.642;-7.920;2023-03-21T01:31:25;96577.44;;;9.60;100.00
60874;BME280;46715;40.642;-7.920;2023-03-21T01:33:26;96573.59;;;9.68;100.00
60874;BME280;46715;40.642;-7.920;2023-03-21T01:35:27;96579.88;;;9.77;100.00
60874;BME280;46715;40.642;-7.920;2023-03-21T01:37:29;96577.81;;;9.79;100.00
60874;BME280;46715;40.642;-7.920;2023-03-21T01:39:32;96581.75;;;9.87;100.00
60874;BME280;46715;40.642;-7.920;2023-03-21T01:41:37;96579.97;;;9.93;100.00
60874;BME280;46715;40.642;-7.920;2023-03-21T01:43:42;96592.72;;;9.99;100.00
60874;BME280;46715;40.642;-7.920;2023-03-21T01:48:40;96585.78;;;10.15;100.00
60874;BME280;46715;40.642;-7.920;2023-03-21T01:50:42;96590.75;;;10.22;100.00
60874;BME280;46715;40.642;-7.920;2023-03-21T01:53:07;96585.53;;;10.22;100.00
60874;BME280;46715;40.642;-7.920;2023-03-21T01:55:11;96584.47;;;10.18;100.00
60874;BME280;46715;40.642;-7.920;2023-03-21T01:57:26;96582.94;;;10.22;100.00
60874;BME280;46715;40.642;-7.920;2023-03-21T01:59:40;96579.03;;;10.24;100.00
60874;BME280;46715;40.642;-7.920;2023-03-21T02:02:09;96585.81;;;10.31;100.00
60874;BME280;46715;40.642;-7.920;2023-03-21T02:04:19;96590.03;;;10.37;100.00
60874;BME280;46715;40.642;-7.920;2023-03-21T02:06:53;96588.22;;;10.43;100.00
60874;BME280;46715;40.642;-7.920;2023-03-21T02:09:09;96581.94;;;10.44;100.00
60874;BME280;46715;40.642;-7.920;2023-03-21T02:11:12;96587.72;;;10.46;100.00
60874;BME280;46715;40.642;-7.920;2023-03-21T02:13:16;96580.41;;;10.48;100.00
60874;BME280;46715;40.642;-7.920;2023-03-21T02:15:18;96584.03;;;10.36;100.00
60874;BME280;46715;40.642;-7.920;2023-03-21T02:20:16;96579.13;;;10.55;100.00
60874;BME280;46715;40.642;-7.920;2023-03-21T02:22:28;96580.41;;;10.48;100.00
60874;BME280;46715;40.642;-7.920;2023-03-21T02:29:52;96566.81;;;10.35;100.00
60874;BME280;46715;40.642;-7.920;2023-03-21T02:32:22;96568.84;;;10.28;100.00
60874;BME280;46715;40.642;-7.920;2023-03-21T02:34:53;96568.84;;;10.23;100.00
60874;BME280;46715;40.642;-7.920;2023-03-21T02:37:21;96566.22;;;10.23;100.00
60874;BME280;46715;40.642;-7.920;2023-03-21T02:39:55;96557.63;;;10.22;100.00
60874;BME280;46715;40.642;-7.920;2023-03-21T02:46:50;96558.63;;;10.06;100.00
60874;BME280;46715;40.642;-7.920;2023-03-21T02:49:33;96559.16;;;10.03;100.00
60874;BME280;46715;40.642;-7.920;2023-03-21T02:51:38;96554.72;;;9.98;100.00
60874;BME280;46715;40.642;-7.920;2023-03-21T02:53:44;96555.75;;;9.97;100.00
60874;BME280;46715;40.642;-7.920;2023-03-21T02:55:48;96551.56;;;9.96;100.00
60874;BME280;46715;40.642;-7.920;2023-03-21T02:57:54;96557.28;;;9.93;100.00
60874;BME280;46715;40.642;-7.920;2023-03-21T02:59:56;96563.81;;;9.96;100.00
60874;BME280;46715;40.642;-7.920;2023-03-21T03:02:02;96562.72;;;9.86;100.00
60874;BME280;46715;40.642;-7.920;2023-03-21T03:04:03;96557.25;;;9.83;100.00
60874;BME280;46715;40.642;-7.920;2023-03-21T03:06:26;96556.19;;;9.84;100.00
60874;BME280;46715;40.642;-7.920;2023-03-21T03:08:43;96553.84;;;9.82;100.00
60874;BME280;46715;40.642;-7.920;2023-03-21T03:15:44;96546.88;;;9.93;100.00
60874;BME280;46715;40.642;-7.920;2023-03-21T03:18:59;96542.44;;;9.88;100.00
60874;BME280;46715;40.642;-7.920;2023-03-21T03:20:56;96545.22;;;9.71;100.00
60874;BME280;46715;40.642;-7.920;2023-03-21T03:23:14;96537.88;;;9.63;100.00
60874;BME280;46715;40.642;-7.920;2023-03-21T03:25:23;96529.81;;;9.60;100.00
60874;BME280;46715;40.642;-7.920;2023-03-21T03:27:31;96536.34;;;9.62;100.00
60874;BME280;46715;40.642;-7.920;2023-03-21T03:29:39;96530.03;;;9.53;100.00
60874;BME280;46715;40.642;-7.920;2023-03-21T03:31:46;96530.81;;;9.53;100.00
60874;BME280;46715;40.642;-7.920;2023-03-21T03:33:51;96521.97;;;9.54;100.00
60874;BME280;46715;40.642;-7.920;2023-03-21T03:35:55;96514.38;;;9.43;100.00
60874;BME280;46715;40.642;-7.920;2023-03-21T03:38:01;96514.13;;;9.49;100.00
60874;BME280;46715;40.642;-7.920;2023-03-21T03:40:14;96517.28;;;9.51;100.00
60874;BME280;46715;40.642;-7.920;2023-03-21T03:42:30;96524.81;;;9.53;100.00
60874;BME280;46715;40.642;-7.920;2023-03-21T03:44:42;96508.09;;;9.38;100.00
60874;BME280;46715;40.642;-7.920;2023-03-21T03:47:01;96511.78;;;9.48;100.00
60874;BME280;46715;40.642;-7.920;2023-03-21T03:49:16;96513.03;;;9.35;100.00
60874;BME280;46715;40.642;-7.920;2023-03-21T03:51:41;96511.00;;;9.47;100.00
60874;BME280;46715;40.642;-7.920;2023-03-21T03:54:00;96509.16;;;9.43;100.00
60874;BME280;46715;40.642;-7.920;2023-03-21T03:56:06;96516.16;;;9.37;100.00
60874;BME280;46715;40.642;-7.920;2023-03-21T03:58:12;96518.47;;;9.33;100.00
60874;BME280;46715;40.642;-7.920;2023-03-21T04:00:16;96519.00;;;9.30;100.00
60874;BME280;46715;40.642;-7.920;2023-03-21T04:02:20;96523.94;;;9.32;100.00
60874;BME280;46715;40.642;-7.920;2023-03-21T04:04:22;96528.34;;;9.31;100.00
60874;BME280;46715;40.642;-7.920;2023-03-21T04:06:28;96526.00;;;9.30;100.00
60874;BME280;46715;40.642;-7.920;2023-03-21T04:08:29;96516.69;;;9.39;100.00
60874;BME280;46715;40.642;-7.920;2023-03-21T04:10:31;96520.03;;;9.29;100.00
60874;BME280;46715;40.642;-7.920;2023-03-21T04:12:34;96519.72;;;9.26;100.00
60874;BME280;46715;40.642;-7.920;2023-03-21T04:14:58;96507.25;;;9.28;100.00
60874;BME280;46715;40.642;-7.920;2023-03-21T04:17:02;96518.31;;;9.08;100.00
60874;BME280;46715;40.642;-7.920;2023-03-21T04:19:03;96507.44;;;9.11;100.00
60874;BME280;46715;40.642;-7.920;2023-03-21T04:21:10;96505.50;;;8.96;100.00
60874;BME280;46715;40.642;-7.920;2023-03-21T04:23:12;96501.28;;;8.90;100.00
60874;BME280;46715;40.642;-7.920;2023-03-21T04:25:17;96502.34;;;8.89;100.00
60874;BME280;46715;40.642;-7.920;2023-03-21T04:27:18;96508.16;;;9.01;100.00
60874;BME280;46715;40.642;-7.920;2023-03-21T04:29:51;96501.91;;;9.02;100.00
60874;BME280;46715;40.642;-7.920;2023-03-21T04:31:59;96491.19;;;8.93;100.00
60874;BME280;46715;40.642;-7.920;2023-03-21T04:34:03;96496.69;;;8.97;100.00
60874;BME280;46715;40.642;-7.920;2023-03-21T04:36:06;96490.16;;;8.94;100.00
60874;BME280;46715;40.642;-7.920;2023-03-21T04:38:08;96483.88;;;8.90;100.00
60874;BME280;46715;40.642;-7.920;2023-03-21T04:40:10;96485.97;;;8.93;100.00
60874;BME280;46715;40.642;-7.920;2023-03-21T04:42:12;96480.78;;;8.93;100.00
60874;BME280;46715;40.642;-7.920;2023-03-21T04:44:15;96485.44;;;8.91;100.00
60874;BME280;46715;40.642;-7.920;2023-03-21T04:46:16;96492.72;;;8.89;100.00
60874;BME280;46715;40.642;-7.920;2023-03-21T04:48:17;96506.28;;;8.96;100.00
60874;BME280;46715;40.642;-7.920;2023-03-21T04:50:19;96497.41;;;8.92;100.00
60874;BME280;46715;40.642;-7.920;2023-03-21T04:52:20;96503.38;;;8.87;100.00
60874;BME280;46715;40.642;-7.920;2023-03-21T04:54:20;96500.56;;;8.99;100.00
60874;BME280;46715;40.642;-7.920;2023-03-21T04:56:26;96510.25;;;9.04;100.00
60874;BME280;46715;40.642;-7.920;2023-03-21T04:58:31;96515.38;;;8.94;100.00
60874;BME280;46715;40.642;-7.920;2023-03-21T05:00:32;96525.41;;;8.80;100.00
60874;BME280;46715;40.642;-7.920;2023-03-21T05:02:37;96517.84;;;8.78;100.00
60874;BME280;46715;40.642;-7.920;2023-03-21T05:04:40;96526.56;;;8.94;100.00
60874;BME280;46715;40.642;-7.920;2023-03-21T05:06:44;96521.06;;;8.91;100.00
60874;BME280;46715;40.642;-7.920;2023-03-21T05:08:45;96512.28;;;8.97;100.00
60874;BME280;46715;40.642;-7.920;2023-03-21T05:10:46;96508.41;;;9.04;100.00
60874;BME280;46715;40.642;-7.920;2023-03-21T05:12:47;96503.72;;;9.01;100.00
60874;BME280;46715;40.642;-7.920;2023-03-21T05:14:48;96500.63;;;9.04;100.00
60874;BME280;46715;40.642;-7.920;2023-03-21T05:16:49;96497.25;;;9.09;100.00
60874;BME280;46715;40.642;-7.920;2023-03-21T05:18:56;96506.06;;;9.03;100.00
60874;BME280;46715;40.642;-7.920;2023-03-21T05:21:00;96507.66;;;9.04;100.00
60874;BME280;46715;40.642;-7.920;2023-03-21T05:23:01;96506.63;;;9.05;100.00
60874;BME280;46715;40.642;-7.920;2023-03-21T05:25:02;96510.81;;;9.11;100.00
60874;BME280;46715;40.642;-7.920;2023-03-21T05:27:20;96511.38;;;9.18;100.00
60874;BME280;46715;40.642;-7.920;2023-03-21T05:29:34;96520.44;;;9.16;100.00
60874;BME280;46715;40.642;-7.920;2023-03-21T05:31:38;96522.78;;;9.12;100.00
60874;BME280;46715;40.642;-7.920;2023-03-21T05:33:44;96536.56;;;9.13;100.00
60874;BME280;46715;40.642;-7.920;2023-03-21T05:35:51;96526.47;;;9.16;100.00
60874;BME280;46715;40.642;-7.920;2023-03-21T05:37:52;96523.31;;;9.14;100.00
60874;BME280;46715;40.642;-7.920;2023-03-21T05:39:56;96513.19;;;9.18;100.00
60874;BME280;46715;40.642;-7.920;2023-03-21T05:42:01;96510.84;;;9.16;100.00
60874;BME280;46715;40.642;-7.920;2023-03-21T05:44:04;96502.75;;;9.13;100.00
60874;BME280;46715;40.642;-7.920;2023-03-21T05:46:06;96497.06;;;9.21;100.00
60874;BME280;46715;40.642;-7.920;2023-03-21T05:48:07;96488.03;;;9.29;100.00
60874;BME280;46715;40.642;-7.920;2023-03-21T05:50:19;96482.72;;;9.13;100.00
60874;BME280;46715;40.642;-7.920;2023-03-21T05:52:33;96487.41;;;9.11;100.00
60874;BME280;46715;40.642;-7.920;2023-03-21T05:54:38;96489.50;;;9.14;100.00
60874;BME280;46715;40.642;-7.920;2023-03-21T05:56:39;96486.28;;;9.02;100.00
60874;BME280;46715;40.642;-7.920;2023-03-21T05:58:44;96482.97;;;9.07;100.00
60874;BME280;46715;40.642;-7.920;2023-03-21T06:00:45;96493.63;;;9.10;100.00
60874;BME280;46715;40.642;-7.920;2023-03-21T06:02:57;96491.47;;;8.97;100.00
60874;BME280;46715;40.642;-7.920;2023-03-21T06:05:21;96497.41;;;8.92;100.00
60874;BME280;46715;40.642;-7.920;2023-03-21T06:07:22;96505.22;;;8.92;100.00
60874;BME280;46715;40.642;-7.920;2023-03-21T06:09:24;96498.44;;;8.91;100.00
60874;BME280;46715;40.642;-7.920;2023-03-21T06:11:34;96499.84;;;9.09;100.00
60874;BME280;46715;40.642;-7.920;2023-03-21T06:14:04;96495.41;;;9.04;100.00
60874;BME280;46715;40.642;-7.920;2023-03-21T06:16:06;96493.38;;;9.12;100.00
60874;BME280;46715;40.642;-7.920;2023-03-21T06:18:09;96499.59;;;9.06;100.00
60874;BME280;46715;40.642;-7.920;2023-03-21T06:20:13;96498.81;;;9.05;100.00
60874;BME280;46715;40.642;-7.920;2023-03-21T06:22:19;96494.56;;;8.94;100.00
60874;BME280;46715;40.642;-7.920;2023-03-21T06:24:20;96499.50;;;8.90;100.00
60874;BME280;46715;40.642;-7.920;2023-03-21T06:26:22;96500.00;;;8.87;100.00
60874;BME280;46715;40.642;-7.920;2023-03-21T06:28:23;96504.94;;;8.89;100.00
60874;BME280;46715;40.642;-7.920;2023-03-21T06:30:24;96511.69;;;8.90;100.00
60874;BME280;46715;40.642;-7.920;2023-03-21T06:32:43;96515.09;;;8.95;100.00
60874;BME280;46715;40.642;-7.920;2023-03-21T06:34:49;96519.78;;;8.93;100.00
60874;BME280;46715;40.642;-7.920;2023-03-21T06:36:51;96513.00;;;8.92;100.00
60874;BME280;46715;40.642;-7.920;2023-03-21T06:38:55;96521.06;;;8.91;100.00
60874;BME280;46715;40.642;-7.920;2023-03-21T06:40:57;96529.91;;;8.90;100.00
60874;BME280;46715;40.642;-7.920;2023-03-21T06:43:00;96515.88;;;8.91;100.00
60874;BME280;46715;40.642;-7.920;2023-03-21T06:45:01;96521.44;;;9.04;100.00
60874;BME280;46715;40.642;-7.920;2023-03-21T06:47:02;96524.56;;;9.07;100.00
60874;BME280;46715;40.642;-7.920;2023-03-21T06:49:03;96519.38;;;9.07;100.00
60874;BME280;46715;40.642;-7.920;2023-03-21T06:51:04;96520.34;;;9.00;100.00
60874;BME280;46715;40.642;-7.920;2023-03-21T06:53:07;96523.16;;;8.94;100.00
60874;BME280;46715;40.642;-7.920;2023-03-21T06:55:22;96525.75;;;8.89;100.00
60874;BME280;46715;40.642;-7.920;2023-03-21T06:57:27;96527.34;;;8.95;100.00
60874;BME280;46715;40.642;-7.920;2023-03-21T06:59:28;96523.91;;;8.89;100.00
60874;BME280;46715;40.642;-7.920;2023-03-21T07:01:35;96535.69;;;8.97;100.00
60874;BME280;46715;40.642;-7.920;2023-03-21T07:03:40;96535.44;;;8.98;100.00
60874;BME280;46715;40.642;-7.920;2023-03-21T07:05:43;96545.16;;;9.13;100.00
60874;BME280;46715;40.642;-7.920;2023-03-21T07:07:45;96536.34;;;9.19;100.00
60874;BME280;46715;40.642;-7.920;2023-03-21T07:09:46;96530.13;;;9.20;100.00
60874;BME280;46715;40.642;-7.920;2023-03-21T07:11:47;96538.41;;;9.17;100.00
60874;BME280;46715;40.642;-7.920;2023-03-21T07:13:50;96531.19;;;9.25;100.00
60874;BME280;46715;40.642;-7.920;2023-03-21T07:15:51;96535.41;;;9.36;100.00
60874;BME280;46715;40.642;-7.920;2023-03-21T07:17:54;96533.13;;;9.45;100.00
60874;BME280;46715;40.642;-7.920;2023-03-21T07:19:55;96534.47;;;9.52;100.00
60874;BME280;46715;40.642;-7.920;2023-03-21T07:21:57;96537.66;;;9.65;100.00
60874;BME280;46715;40.642;-7.920;2023-03-21T07:23:57;96542.41;;;9.83;100.00
60874;BME280;46715;40.642;-7.920;2023-03-21T07:25:59;96535.66;;;9.87;99.51
60874;BME280;46715;40.642;-7.920;2023-03-21T07:28:00;96534.13;;;9.97;99.77
60874;BME280;46715;40.642;-7.920;2023-03-21T07:30:03;96538.34;;;10.08;98.47
60874;BME280;46715;40.642;-7.920;2023-03-21T07:32:04;96535.72;;;10.13;97.75
60874;BME280;46715;40.642;-7.920;2023-03-21T07:34:05;96534.69;;;10.14;98.46
60874;BME280;46715;40.642;-7.920;2023-03-21T07:36:09;96533.69;;;10.20;97.50
60874;BME280;46715;40.642;-7.920;2023-03-21T07:38:12;96540.44;;;10.16;97.21
60874;BME280;46715;40.642;-7.920;2023-03-21T07:40:16;96533.16;;;10.34;96.78
60874;BME280;46715;40.642;-7.920;2023-03-21T07:42:18;96537.06;;;10.21;95.79
60874;BME280;46715;40.642;-7.920;2023-03-21T07:44:18;96539.94;;;10.24;95.65
60874;BME280;46715;40.642;-7.920;2023-03-21T07:46:19;96533.94;;;10.19;95.42
60874;BME280;46715;40.642;-7.920;2023-03-21T07:48:22;96543.59;;;10.29;95.04
60874;BME280;46715;40.642;-7.920;2023-03-21T07:50:23;96548.31;;;10.42;93.99
60874;BME280;46715;40.642;-7.920;2023-03-21T07:52:24;96546.78;;;10.51;90.21
60874;BME280;46715;40.642;-7.920;2023-03-21T07:54:25;96541.03;;;10.54;90.96
60874;BME280;46715;40.642;-7.920;2023-03-21T07:56:28;96543.16;;;10.63;91.13
60874;BME280;46715;40.642;-7.920;2023-03-21T07:58:29;96549.41;;;10.62;90.30
60874;BME280;46715;40.642;-7.920;2023-03-21T08:00:30;96556.69;;;10.54;91.19
60874;BME280;46715;40.642;-7.920;2023-03-21T08:02:31;96554.09;;;10.70;91.20
60874;BME280;46715;40.642;-7.920;2023-03-21T08:04:31;96549.94;;;10.84;87.45
60874;BME280;46715;40.642;-7.920;2023-03-21T08:06:34;96547.84;;;10.81;87.18
60874;BME280;46715;40.642;-7.920;2023-03-21T08:08:36;96541.84;;;10.81;88.01
60874;BME280;46715;40.642;-7.920;2023-03-21T08:10:38;96545.25;;;10.76;86.54
60874;BME280;46715;40.642;-7.920;2023-03-21T08:12:39;96559.84;;;10.77;87.72
60874;BME280;46715;40.642;-7.920;2023-03-21T08:14:40;96549.69;;;10.86;87.70
60874;BME280;46715;40.642;-7.920;2023-03-21T08:16:41;96551.50;;;11.01;88.38
60874;BME280;46715;40.642;-7.920;2023-03-21T08:18:42;96552.28;;;10.96;86.51
60874;BME280;46715;40.642;-7.920;2023-03-21T08:20:43;96558.56;;;10.90;86.73
60874;BME280;46715;40.642;-7.920;2023-03-21T08:22:44;96550.47;;;10.91;86.77
60874;BME280;46715;40.642;-7.920;2023-03-21T08:24:44;96556.97;;;11.09;85.79
60874;BME280;46715;40.642;-7.920;2023-03-21T08:26:45;96567.69;;;11.03;85.64
60874;BME280;46715;40.642;-7.920;2023-03-21T08:28:46;96560.63;;;10.72;88.23
60874;BME280;46715;40.642;-7.920;2023-03-21T08:30:48;96573.41;;;11.10;88.45
60874;BME280;46715;40.642;-7.920;2023-03-21T08:32:49;96577.31;;;11.38;87.88
60874;BME280;46715;40.642;-7.920;2023-03-21T08:34:50;96577.78;;;11.61;86.17
60874;BME280;46715;40.642;-7.920;2023-03-21T08:36:51;96579.19;;;12.19;85.01
60874;BME280;46715;40.642;-7.920;2023-03-21T08:38:53;96569.41;;;13.09;80.94
60874;BME280;46715;40.642;-7.920;2023-03-21T08:40:56;96568.88;;;14.14;75.95
60874;BME280;46715;40.642;-7.920;2023-03-21T08:42:57;96556.78;;;15.08;68.73
60874;BME280;46715;40.642;-7.920;2023-03-21T08:44:58;96562.09;;;15.50;66.28
60874;BME280;46715;40.642;-7.920;2023-03-21T08:46:59;96565.78;;;16.18;62.29
60874;BME280;46715;40.642;-7.920;2023-03-21T08:48:59;96567.47;;;16.00;62.48
60874;BME280;46715;40.642;-7.920;2023-03-21T08:51:04;96573.22;;;15.75;63.42
60874;BME280;46715;40.642;-7.920;2023-03-21T08:53:06;96564.78;;;15.17;65.60
60874;BME280;46715;40.642;-7.920;2023-03-21T08:55:08;96554.63;;;14.96;67.05
60874;BME280;46715;40.642;-7.920;2023-03-21T08:57:09;96556.78;;;14.56;67.22
60874;BME280;46715;40.642;-7.920;2023-03-21T08:59:11;96558.47;;;14.28;69.17
60874;BME280;46715;40.642;-7.920;2023-03-21T09:01:12;96551.63;;;14.70;69.19
60874;BME280;46715;40.642;-7.920;2023-03-21T09:03:15;96555.69;;;15.56;63.77
60874;BME280;46715;40.642;-7.920;2023-03-21T09:05:16;96546.31;;;15.36;64.66
60874;BME280;46715;40.642;-7.920;2023-03-21T09:07:18;96542.25;;;15.30;66.04
60874;BME280;46715;40.642;-7.920;2023-03-21T09:09:19;96549.97;;;15.07;66.90
60874;BME280;46715;40.642;-7.920;2023-03-21T09:11:21;96554.25;;;14.70;70.44
60874;BME280;46715;40.642;-7.920;2023-03-21T09:13:23;96548.88;;;15.55;67.97
60874;BME280;46715;40.642;-7.920;2023-03-21T09:15:26;96548.00;;;16.01;64.72
60874;BME280;46715;40.642;-7.920;2023-03-21T09:17:28;96559.97;;;16.81;63.76
60874;BME280;46715;40.642;-7.920;2023-03-21T09:19:29;96551.69;;;17.50;61.25
60874;BME280;46715;40.642;-7.920;2023-03-21T09:21:31;96560.72;;;18.07;60.00
60874;BME280;46715;40.642;-7.920;2023-03-21T09:23:32;96567.28;;;18.71;58.27
60874;BME280;46715;40.642;-7.920;2023-03-21T09:25:33;96552.97;;;19.54;55.87
60874;BME280;46715;40.642;-7.920;2023-03-21T09:27:34;96560.34;;;21.26;51.12
60874;BME280;46715;40.642;-7.920;2023-03-21T09:31:36;96547.88;;;22.95;45.67
60874;BME280;46715;40.642;-7.920;2023-03-21T09:33:39;96542.59;;;23.59;44.44
60874;BME280;46715;40.642;-7.920;2023-03-21T09:35:40;96538.13;;;23.63;43.75
60874;BME280;46715;40.642;-7.920;2023-03-21T09:37:42;96525.41;;;23.88;42.36
60874;BME280;46715;40.642;-7.920;2023-03-21T09:39:43;96527.50;;;23.31;42.75
60874;BME280;46715;40.642;-7.920;2023-03-21T09:46:34;96523.38;;;25.42;40.95
60874;BME280;46715;40.642;-7.920;2023-03-21T09:48:47;96526.91;;;25.26;39.56
60874;BME280;46715;40.642;-7.920;2023-03-21T09:50:50;96518.81;;;25.42;39.15
60874;BME280;46715;40.642;-7.920;2023-03-21T09:53:03;96529.72;;;25.10;39.61
60874;BME280;46715;40.642;-7.920;2023-03-21T09:55:08;96531.22;;;24.88;39.85
60874;BME280;46715;40.642;-7.920;2023-03-21T09:57:30;96531.69;;;24.94;40.65
60874;BME280;46715;40.642;-7.920;2023-03-21T09:59:34;96521.19;;;25.74;38.23
60874;BME280;46715;40.642;-7.920;2023-03-21T10:01:45;96524.06;;;26.15;37.97
60874;BME280;46715;40.642;-7.920;2023-03-21T10:03:48;96508.75;;;25.85;38.48
60874;BME280;46715;40.642;-7.920;2023-03-21T10:05:55;96505.69;;;26.10;37.06
60874;BME280;46715;40.642;-7.920;2023-03-21T10:08:20;96520.47;;;26.34;37.72
60874;BME280;46715;40.642;-7.920;2023-03-21T10:10:27;96510.94;;;26.03;37.00
60874;BME280;46715;40.642;-7.920;2023-03-21T10:12:29;96505.69;;;26.10;36.79
60874;BME280;46715;40.642;-7.920;2023-03-21T10:14:43;96505.28;;;25.55;37.51
60874;BME280;46715;40.642;-7.920;2023-03-21T10:16:48;96495.56;;;26.00;37.61
60874;BME280;46715;40.642;-7.920;2023-03-21T10:18:53;96509.56;;;26.16;37.80
60874;BME280;46715;40.642;-7.920;2023-03-21T10:20:54;96501.75;;;26.34;35.21
60874;BME280;46715;40.642;-7.920;2023-03-21T10:23:03;96513.88;;;26.59;35.47
60874;BME280;46715;40.642;-7.920;2023-03-21T10:25:07;96508.56;;;27.00;34.98
60874;BME280;46715;40.642;-7.920;2023-03-21T10:27:10;96508.84;;;26.53;35.35
60874;BME280;46715;40.642;-7.920;2023-03-21T10:29:14;96523.41;;;25.22;36.62
60874;BME280;46715;40.642;-7.920;2023-03-21T10:31:21;96527.03;;;25.10;36.29
60874;BME280;46715;40.642;-7.920;2023-03-21T10:33:47;96515.63;;;24.90;35.82
60874;BME280;46715;40.642;-7.920;2023-03-21T10:35:58;96517.47;;;24.08;35.73
60874;BME280;46715;40.642;-7.920;2023-03-21T10:38:00;96514.53;;;23.13;36.42
60874;BME280;46715;40.642;-7.920;2023-03-21T10:40:01;96519.38;;;22.95;38.01
60874;BME280;46715;40.642;-7.920;2023-03-21T10:42:02;96525.72;;;22.34;39.76
60874;BME280;46715;40.642;-7.920;2023-03-21T10:44:10;96518.03;;;21.42;41.22
60874;BME280;46715;40.642;-7.920;2023-03-21T10:46:19;96520.28;;;20.94;42.39
60874;BME280;46715;40.642;-7.920;2023-03-21T10:48:23;96527.81;;;20.50;46.72
60874;BME280;46715;40.642;-7.920;2023-03-21T10:50:28;96539.16;;;19.87;48.38
60874;BME280;46715;40.642;-7.920;2023-03-21T10:52:32;96515.19;;;19.54;48.83
60874;BME280;46715;40.642;-7.920;2023-03-21T10:54:35;96528.03;;;19.64;49.95
60874;BME280;46715;40.642;-7.920;2023-03-21T10:56:41;96538.81;;;19.59;50.01
60874;BME280;46715;40.642;-7.920;2023-03-21T10:58:47;96544.00;;;19.76;50.10
60874;BME280;46715;40.642;-7.920;2023-03-21T11:00:54;96535.97;;;19.64;50.75
60874;BME280;46715;40.642;-7.920;2023-03-21T11:02:57;96539.84;;;19.75;50.19
60874;BME280;46715;40.642;-7.920;2023-03-21T11:05:24;96545.97;;;19.97;49.61
60874;BME280;46715;40.642;-7.920;2023-03-21T11:07:27;96534.94;;;19.95;50.75
60874;BME280;46715;40.642;-7.920;2023-03-21T11:10:14;96538.66;;;19.94;49.82
60874;BME280;46715;40.642;-7.920;2023-03-21T11:12:17;96542.81;;;19.74;49.49
60874;BME280;46715;40.642;-7.920;2023-03-21T11:14:30;96534.81;;;19.44;50.79
60874;BME280;46715;40.642;-7.920;2023-03-21T11:16:41;96531.44;;;19.73;51.16
60874;BME280;46715;40.642;-7.920;2023-03-21T11:18:44;96535.03;;;19.99;51.49
60874;BME280;46715;40.642;-7.920;2023-03-21T11:20:52;96530.63;;;20.33;50.61
60874;BME280;46715;40.642;-7.920;2023-03-21T11:22:56;96525.50;;;19.76;51.64